EICN weather

Coonagh Aerodrome
Limerick, County Limerick, Ireland

Public forecast

Using degrees Celsius for public forecast. Weather courtesy of forecast.io.

Closest aviation weather report (METAR) to Coonagh Aerodrome

Closest report is Shannon Airport, 9.1 nm (16.8 km) WNW. Retrieved 2020/08/05 04:30 UTC (29 minutes ago):

EINN 050430Z 26002KT 2000 -RADZ OVC004 16/15 Q1002 TEMPO BKN003

Closest aviation forecast (TAF) to Coonagh Aerodrome

Closest forecast is Shannon Airport, 9.1 nm (16.8 km) WNW. Retrieved 2020-08-05 00:09 UTC (5 hours ago):

TAF EINN 042300Z 0500/0524 21010KT 5000 -RA SCT005 BKN012 TEMPO 0500/0511 3000 RA BKN006 PROB40 TEMPO 0500/0509 1200 RADZ BR BKN003 BECMG 0500/0502 18008KT PROB30 TEMPO 0504/0507 +SHRA BKN018CB BECMG 0508/0510 28008KT 9999 BKN020 BECMG 0520/0522 16005KT